Time;durP1;ratioP1;P1;durP2;ratioP2;P2;SDS_P1;SDS_P2;PMS_P1;PMS_P2;Temp;Humidity;BMP_temperature;BMP_pressure;BME280_temperature;BME280_humidity;BME280_pressure;Samples;Min_cycle;Max_cycle;Signal;HPM_P1;HPM_P2
2021/07/23 00:02:23;;;;;;;;;10.75;9.00;;;;;24.64;44.77;101450.63;4971301;28;48382;-84
2021/07/23 00:04:49;;;;;;;;;11.50;9.25;;;;;24.61;44.48;101451.66;4976286;28;45834;-83
2021/07/23 00:07:14;;;;;;;;;10.50;10.00;;;;;24.55;45.34;101449.28;4969111;28;45280;-83
2021/07/23 00:09:40;;;;;;;;;9.25;9.25;;;;;24.53;45.35;101453.88;4945196;28;45802;-84
2021/07/23 00:12:06;;;;;;;;;12.50;11.50;;;;;24.43;45.39;101441.78;4978723;28;45250;-84
2021/07/23 00:14:31;;;;;;;;;13.50;10.50;;;;;24.39;45.38;101445.59;4962421;28;45448;-84
2021/07/23 00:16:57;;;;;;;;;10.25;8.75;;;;;24.31;45.51;101443.28;4964245;28;45397;-83
2021/07/23 00:19:22;;;;;;;;;8.00;8.00;;;;;24.26;46.04;101444.47;4947433;28;45424;-83
2021/07/23 00:21:48;;;;;;;;;10.50;9.50;;;;;24.23;45.58;101445.50;4966653;28;45480;-83
2021/07/23 00:24:16;;;;;;;;;15.25;14.00;;;;;24.18;46.18;101439.47;4954083;28;44811;-82
2021/07/23 00:26:43;;;;;;;;;15.25;13.25;;;;;24.13;45.92;101431.59;4963352;28;45571;-82
2021/07/23 00:29:14;;;;;;;;;11.75;10.00;;;;;24.13;45.84;101442.38;4969165;28;45236;-83
2021/07/23 00:31:39;;;;;;;;;12.25;10.75;;;;;24.07;46.36;101434.63;4973988;28;48129;-83
2021/07/23 00:34:05;;;;;;;;;11.25;11.25;;;;;24.08;46.79;101430.09;4950346;28;45180;-83
2021/07/23 00:36:30;;;;;;;;;13.25;11.75;;;;;23.98;46.73;101427.00;4950454;28;45433;-83
2021/07/23 00:38:56;;;;;;;;;14.50;13.50;;;;;23.97;46.95;101426.09;4975998;28;45529;-83
2021/07/23 00:41:21;;;;;;;;;9.50;8.25;;;;;23.94;46.64;101426.25;4964695;28;45406;-83
2021/07/23 00:43:47;;;;;;;;;10.25;10.00;;;;;23.93;47.12;101429.03;4965359;28;45215;-83
2021/07/23 00:46:12;;;;;;;;;14.25;13.50;;;;;23.90;46.88;101421.13;4946610;28;45125;-83
2021/07/23 00:48:38;;;;;;;;;14.50;12.00;;;;;23.85;47.31;101415.97;4964215;28;45508;-83
2021/07/23 00:51:06;;;;;;;;;16.25;12.50;;;;;23.78;47.33;101411.81;4961244;28;46439;-83
2021/07/23 00:53:34;;;;;;;;;11.25;11.25;;;;;23.78;47.58;101423.44;4984984;28;45243;-83
2021/07/23 00:56:00;;;;;;;;;13.00;13.00;;;;;23.75;47.77;101411.97;4948606;28;45389;-83
2021/07/23 00:58:30;;;;;;;;;13.25;11.50;;;;;23.69;47.79;101414.94;4958967;28;45505;-83
2021/07/23 01:00:58;;;;;;;;;11.25;11.00;;;;;23.63;47.09;101409.81;4993740;28;46429;-83
2021/07/23 01:03:24;;;;;;;;;14.25;12.25;;;;;23.62;47.66;101405.41;4949202;28;45327;-83
2021/07/23 01:05:51;;;;;;;;;11.50;10.75;;;;;23.56;47.68;101402.06;4959223;28;45391;-82
2021/07/23 01:08:20;;;;;;;;;13.00;11.75;;;;;23.55;47.58;101410.22;4979416;28;45547;-82
2021/07/23 01:10:45;;;;;;;;;10.75;10.75;;;;;23.53;48.30;101406.72;4969675;28;45227;-82
2021/07/23 01:13:12;;;;;;;;;16.25;12.75;;;;;23.48;48.38;101393.50;4947255;28;45519;-82
2021/07/23 01:15:38;;;;;;;;;12.00;10.00;;;;;23.48;48.44;101400.69;4964410;28;45483;-82
2021/07/23 01:18:03;;;;;;;;;11.75;10.75;;;;;23.48;48.36;101392.63;4956625;28;45333;-82
2021/07/23 01:20:30;;;;;;;;;13.00;12.00;;;;;23.45;48.26;101390.09;4967982;28;45960;-82
2021/07/23 01:22:59;;;;;;;;;12.50;10.25;;;;;23.41;48.65;101385.78;4974039;28;45417;-83
2021/07/23 01:25:25;;;;;;;;;14.25;13.75;;;;;23.37;48.50;101392.28;4946738;28;45276;-83
2021/07/23 01:27:54;;;;;;;;;14.00;13.00;;;;;23.40;48.36;101397.50;4956928;28;45280;-83
2021/07/23 01:30:25;;;;;;;;;13.25;11.25;;;;;23.37;48.82;101394.94;4949925;28;48108;-84
2021/07/23 01:32:52;;;;;;;;;12.50;12.50;;;;;23.29;48.98;101393.47;4963450;28;45351;-84
2021/07/23 01:35:18;;;;;;;;;13.00;11.25;;;;;23.23;49.35;101396.47;4977381;28;45377;-82
2021/07/23 01:37:45;;;;;;;;;14.25;13.50;;;;;23.18;49.05;101386.88;4948158;28;45659;-83
2021/07/23 01:40:11;;;;;;;;;12.50;11.50;;;;;23.20;48.80;101390.34;4959157;28;46030;-83
2021/07/23 01:42:42;;;;;;;;;12.00;11.50;;;;;23.14;49.45;101383.44;4963695;28;45165;-83
2021/07/23 01:45:08;;;;;;;;;13.25;12.75;;;;;23.14;49.62;101387.94;4963712;28;45298;-82
2021/07/23 01:47:33;;;;;;;;;12.00;11.00;;;;;23.06;49.23;101381.09;4959464;28;45517;-83
2021/07/23 01:49:59;;;;;;;;;10.25;10.25;;;;;23.04;49.67;101385.69;4959121;28;45405;-83
2021/07/23 01:52:25;;;;;;;;;14.00;13.00;;;;;23.02;49.62;101384.88;4964349;28;45552;-83
2021/07/23 01:54:50;;;;;;;;;14.75;14.75;;;;;23.07;49.64;101384.69;4948238;28;45345;-83
2021/07/23 01:57:16;;;;;;;;;13.25;10.50;;;;;23.07;49.61;101382.88;4947715;28;45417;-83
2021/07/23 01:59:41;;;;;;;;;11.75;11.50;;;;;23.07;50.03;101379.31;4984970;28;45578;-82
2021/07/23 02:02:07;;;;;;;;;12.25;11.75;;;;;23.05;49.96;101378.50;4996187;28;45222;-84
2021/07/23 02:04:36;;;;;;;;;10.25;9.25;;;;;23.01;49.99;101371.50;4964613;28;45267;-82
2021/07/23 02:07:02;;;;;;;;;12.00;12.00;;;;;23.01;50.03;101368.81;4966910;28;45383;-82
2021/07/23 02:09:28;;;;;;;;;15.00;13.00;;;;;23.01;49.84;101379.56;4965039;28;45654;-83
2021/07/23 02:11:54;;;;;;;;;13.75;12.75;;;;;23.00;50.25;101362.59;4973869;28;45802;-82
2021/07/23 02:14:19;;;;;;;;;14.00;11.75;;;;;22.96;50.23;101362.75;4979818;28;45496;-83
2021/07/23 02:16:45;;;;;;;;;13.25;12.00;;;;;22.98;49.98;101368.97;4963471;28;45423;-83
2021/07/23 02:19:13;;;;;;;;;14.50;13.00;;;;;22.94;50.27;101360.16;4964095;28;46249;-83
2021/07/23 02:21:38;;;;;;;;;18.50;14.75;;;;;22.97;50.27;101372.63;4963646;28;45766;-83
2021/07/23 02:24:04;;;;;;;;;15.00;13.75;;;;;22.96;50.47;101371.75;4976926;28;45414;-82
2021/07/23 02:26:30;;;;;;;;;16.00;14.75;;;;;22.88;50.21;101369.38;4963663;28;45433;-83
2021/07/23 02:28:58;;;;;;;;;17.25;15.00;;;;;22.85;50.49;101366.81;4962866;28;47368;-84
2021/07/23 02:31:25;;;;;;;;;16.00;14.00;;;;;22.87;50.59;101378.34;4963672;28;45463;-83
2021/07/23 02:33:51;;;;;;;;;15.50;14.25;;;;;22.87;50.90;101374.78;4984239;28;45391;-83
2021/07/23 02:36:19;;;;;;;;;14.00;14.00;;;;;22.87;51.01;101378.34;4969133;28;45457;-83
2021/07/23 02:38:44;;;;;;;;;18.50;18.50;;;;;22.84;50.72;101377.63;4961876;28;47306;-83
2021/07/23 02:41:12;;;;;;;;;15.00;13.75;;;;;22.77;51.17;101370.78;4963753;28;45248;-82
2021/07/23 02:43:37;;;;;;;;;14.00;13.50;;;;;22.80;50.65;101381.38;4963388;28;45405;-82
2021/07/23 02:46:07;;;;;;;;;14.50;14.50;;;;;22.70;51.13;101367.50;4962522;28;45649;-83
2021/07/23 02:48:33;;;;;;;;;16.75;13.25;;;;;22.71;51.01;101365.69;4962843;28;46505;-83
2021/07/23 02:50:58;;;;;;;;;16.25;14.75;;;;;22.72;50.92;101370.09;4963633;28;45207;-83
2021/07/23 02:53:24;;;;;;;;;12.75;12.75;;;;;22.68;51.21;101361.31;4981858;28;45166;-84
2021/07/23 02:55:51;;;;;;;;;18.25;16.75;;;;;22.61;51.01;101349.09;4960656;28;45532;-84
2021/07/23 02:58:16;;;;;;;;;20.00;18.25;;;;;22.63;51.63;101350.78;4962251;28;47037;-83
2021/07/23 03:00:42;;;;;;;;;14.50;14.50;;;;;22.60;51.39;101353.59;4986042;28;45540;-83
2021/07/23 03:03:07;;;;;;;;;15.00;14.00;;;;;22.58;51.12;101341.19;4974527;28;45383;-83
2021/07/23 03:05:35;;;;;;;;;16.25;15.00;;;;;22.50;51.72;101338.84;4960601;28;46012;-83
2021/07/23 03:08:00;;;;;;;;;17.00;17.00;;;;;22.53;51.49;101349.44;4973320;28;47170;-83
2021/07/23 03:10:28;;;;;;;;;17.25;17.25;;;;;22.49;51.80;101342.47;4968064;28;45367;-83
2021/07/23 03:12:54;;;;;;;;;16.50;16.25;;;;;22.49;51.88;101342.47;4973807;28;45211;-83
2021/07/23 03:15:19;;;;;;;;;16.25;16.00;;;;;22.51;51.61;101342.41;4960600;28;45513;-83
2021/07/23 03:17:45;;;;;;;;;17.75;14.00;;;;;22.45;51.73;101339.06;4982974;28;46168;-82
2021/07/23 03:20:12;;;;;;;;;18.00;16.25;;;;;22.47;51.84;101355.09;4968102;28;45301;-83
2021/07/23 03:22:37;;;;;;;;;19.75;16.25;;;;;22.44;51.98;101349.84;4960605;28;45456;-84
2021/07/23 03:25:03;;;;;;;;;21.50;20.00;;;;;22.41;52.15;101348.19;4960524;28;45930;-83
2021/07/23 03:27:31;;;;;;;;;17.25;16.25;;;;;22.37;52.20;101337.63;4962291;28;47619;-83
2021/07/23 03:29:59;;;;;;;;;15.50;14.75;;;;;22.35;52.32;101334.19;4975009;28;45196;-83
2021/07/23 03:32:25;;;;;;;;;16.50;15.25;;;;;22.35;52.51;101343.09;4979139;28;45379;-83
2021/07/23 03:34:52;;;;;;;;;20.50;18.75;;;;;22.24;52.48;101335.50;4962392;28;45457;-83
2021/07/23 03:37:18;;;;;;;;;17.75;16.75;;;;;22.24;52.54;101342.69;4970009;28;47690;-82
2021/07/23 03:39:43;;;;;;;;;19.25;18.50;;;;;22.21;52.79;101343.69;4969572;28;45313;-82
2021/07/23 03:42:09;;;;;;;;;20.25;19.25;;;;;22.17;53.10;101343.84;4973456;28;45501;-83
2021/07/23 03:44:34;;;;;;;;;18.75;16.25;;;;;22.17;52.98;101342.03;4976228;28;45364;-83
2021/07/23 03:47:00;;;;;;;;;20.75;19.25;;;;;22.16;52.66;101334.03;4969957;28;45388;-83
2021/07/23 03:49:28;;;;;;;;;21.50;19.50;;;;;22.16;52.65;101331.34;4965722;28;45301;-83
2021/07/23 03:51:55;;;;;;;;;22.00;20.50;;;;;22.12;53.12;101319.88;4971757;28;45238;-83
2021/07/23 03:54:26;;;;;;;;;20.00;19.00;;;;;22.10;53.04;101311.03;4970669;28;45305;-83
2021/07/23 03:56:52;;;;;;;;;23.75;21.50;;;;;22.10;53.22;101296.75;4963480;28;47067;-83
2021/07/23 03:59:17;;;;;;;;;19.75;17.50;;;;;22.11;53.51;101294.03;4966379;28;45245;-82
2021/07/23 04:01:43;;;;;;;;;16.75;15.25;;;;;22.07;53.30;101292.38;4989732;28;45375;-83
2021/07/23 04:04:08;;;;;;;;;22.00;20.50;;;;;22.00;53.78;101278.38;4961960;28;45637;-83
2021/07/23 04:06:33;;;;;;;;;20.25;15.00;;;;;21.91;54.20;101268.03;4947269;28;48163;-82
2021/07/23 04:08:59;;;;;;;;;18.50;16.00;;;;;21.88;54.53;101262.81;4953630;28;45309;-83
2021/07/23 04:11:33;;;;;;;;;19.75;19.00;;;;;21.88;54.28;101278.03;4979291;28;45416;-82
2021/07/23 04:13:59;;;;;;;;;19.00;16.00;;;;;21.84;53.97;101276.41;4947276;28;45552;-82
2021/07/23 04:16:24;;;;;;;;;24.25;19.50;;;;;21.84;54.34;101279.97;4965397;28;45381;-82
2021/07/23 04:18:51;;;;;;;;;23.25;22.25;;;;;21.86;54.22;101287.94;4947473;28;45762;-83
2021/07/23 04:21:17;;;;;;;;;19.25;17.50;;;;;21.84;54.52;101287.13;4966817;28;45469;-83
2021/07/23 04:23:42;;;;;;;;;20.25;19.00;;;;;21.85;54.45;101284.41;4962919;28;46046;-83
2021/07/23 04:26:09;;;;;;;;;22.75;19.75;;;;;21.85;54.26;101278.16;4955625;28;46932;-82
2021/07/23 04:28:34;;;;;;;;;18.25;17.00;;;;;21.82;53.98;101279.16;4953527;28;45437;-83
2021/07/23 04:31:00;;;;;;;;;22.00;21.50;;;;;21.84;54.30;101279.97;4986404;28;45400;-83
2021/07/23 04:33:25;;;;;;;;;21.25;19.00;;;;;21.84;54.07;101274.63;4953853;28;45469;-83
2021/07/23 04:35:51;;;;;;;;;24.75;22.75;;;;;21.82;54.23;101275.63;4945959;28;45889;-83
2021/07/23 04:38:16;;;;;;;;;22.50;20.75;;;;;21.76;54.29;101271.41;4966758;28;45292;-82
2021/07/23 04:40:42;;;;;;;;;20.75;18.00;;;;;21.73;54.19;101271.50;4963858;28;45238;-82
2021/07/23 04:43:07;;;;;;;;;21.50;20.75;;;;;21.73;54.53;101266.13;4963596;28;45233;-83
2021/07/23 04:45:33;;;;;;;;;20.75;18.75;;;;;21.77;54.54;101276.66;4964300;28;46495;-84
2021/07/23 04:47:58;;;;;;;;;20.75;20.75;;;;;21.76;54.47;101263.34;4978545;28;45323;-83
2021/07/23 04:50:24;;;;;;;;;21.75;19.25;;;;;21.77;54.69;101274.00;4965146;28;45168;-83
2021/07/23 04:52:54;;;;;;;;;23.25;18.75;;;;;21.79;54.38;101273.94;4984898;28;45969;-83
2021/07/23 04:55:21;;;;;;;;;22.50;18.25;;;;;21.77;54.66;101259.72;4973631;28;45436;-84
2021/07/23 04:57:47;;;;;;;;;20.00;20.00;;;;;21.82;54.57;101276.50;4964120;28;45441;-84
2021/07/23 05:00:18;;;;;;;;;25.25;20.50;;;;;21.80;54.68;101273.00;4962342;28;45286;-83
2021/07/23 05:02:43;;;;;;;;;22.50;20.00;;;;;21.80;54.19;101275.66;4969405;28;45586;-84
2021/07/23 05:05:13;;;;;;;;;28.75;21.25;;;;;21.78;54.50;101277.53;4962059;28;46979;-83
2021/07/23 05:07:44;;;;;;;;;16.00;16.00;;;;;21.84;54.71;101289.81;4968090;28;45213;-83
2021/07/23 05:10:09;;;;;;;;;18.25;18.25;;;;;21.80;54.80;101279.22;4963156;28;45497;-84
2021/07/23 05:12:37;;;;;;;;;22.50;21.00;;;;;21.88;54.59;101286.94;4961543;28;45606;-84
2021/07/23 05:15:04;;;;;;;;;22.25;20.50;;;;;21.89;54.37;101279.75;4962893;28;45475;-84
2021/07/23 05:17:33;;;;;;;;;25.00;21.75;;;;;21.92;54.69;101279.63;4963439;28;45326;-83
2021/07/23 05:19:58;;;;;;;;;20.50;19.50;;;;;21.91;54.62;101285.94;4963239;28;45490;-84
2021/07/23 05:22:24;;;;;;;;;20.75;19.00;;;;;21.91;54.58;101275.22;4961088;28;45415;-83
2021/07/23 05:24:50;;;;;;;;;26.25;25.00;;;;;22.00;54.55;101285.56;4961336;28;47187;-84
2021/07/23 05:27:18;;;;;;;;;24.25;23.00;;;;;22.02;54.23;101286.34;4963543;28;45444;-84
2021/07/23 05:29:43;;;;;;;;;23.25;21.75;;;;;22.02;54.50;101276.53;4963599;28;45329;-84
2021/07/23 05:32:09;;;;;;;;;23.25;22.50;;;;;22.05;54.69;101270.13;4985577;28;45227;-84
2021/07/23 05:34:42;;;;;;;;;21.25;17.75;;;;;21.98;54.60;101266.00;4982901;28;45950;-84
2021/07/23 05:37:07;;;;;;;;;24.75;23.00;;;;;21.95;54.59;101260.75;4983018;28;45254;-84
2021/07/23 05:39:33;;;;;;;;;21.50;20.50;;;;;21.95;54.76;101274.16;4967881;28;45356;-84
2021/07/23 05:41:58;;;;;;;;;23.25;22.00;;;;;21.86;55.04;101259.31;4972042;28;45246;-83
2021/07/23 05:44:29;;;;;;;;;23.00;22.50;;;;;21.84;54.84;101260.31;4967614;28;47993;-83
2021/07/23 05:46:55;;;;;;;;;27.00;24.50;;;;;21.91;55.33;101277.91;4974645;28;45345;-83
2021/07/23 05:49:20;;;;;;;;;24.75;22.00;;;;;21.85;54.88;101265.63;4968629;28;45341;-83
2021/07/23 05:51:45;;;;;;;;;28.00;24.25;;;;;21.91;54.97;101276.09;4968591;28;45461;-83
2021/07/23 05:54:20;;;;;;;;;22.00;20.25;;;;;21.91;54.65;101259.13;4986434;28;48171;-83
2021/07/23 05:56:46;;;;;;;;;25.25;23.75;;;;;21.99;54.54;101259.69;4981794;28;45432;-83
2021/07/23 05:59:11;;;;;;;;;23.50;21.50;;;;;22.01;54.64;101252.44;4983298;28;45443;-84
2021/07/23 06:01:37;;;;;;;;;30.75;28.75;;;;;22.02;55.02;101240.78;5001640;28;45691;-83
2021/07/23 06:04:02;;;;;;;;;25.00;24.00;;;;;22.05;54.49;101243.31;4962311;28;46465;-86
2021/07/23 06:06:31;;;;;;;;;27.25;25.75;;;;;22.06;54.52;101241.53;4964039;28;45209;-91
2021/07/23 06:08:58;;;;;;;;;21.00;19.50;;;;;22.05;54.38;101227.22;4981550;28;45539;-84
2021/07/23 06:11:23;;;;;;;;;27.75;24.00;;;;;22.10;55.08;101227.03;4982482;28;45405;-84
2021/07/23 06:13:49;;;;;;;;;24.50;22.00;;;;;22.06;54.38;101212.91;4979231;28;47703;-82
2021/07/23 06:16:14;;;;;;;;;24.00;22.00;;;;;22.13;54.60;101213.47;4962343;28;45373;-86
2021/07/23 06:18:40;;;;;;;;;21.50;21.25;;;;;22.19;54.67;101210.59;4962083;28;45541;-82
2021/07/23 06:21:09;;;;;;;;;23.50;22.00;;;;;22.29;54.42;101227.97;4962463;28;45480;-86
2021/07/23 06:24:34;;;;;;;;;;;;;;;;;;;;;
2021/07/23 06:27:06;;;;;;;;;22.75;21.00;;;;;22.28;54.44;101203.91;4976587;28;72778;-85
2021/07/23 06:30:46;;;;;;;;;;;;;;;;;;;;;
2021/07/23 06:33:12;;;;;;;;;25.50;21.25;;;;;22.33;54.28;101207.28;4935858;28;72627;-80
2021/07/23 06:39:43;;;;;;;;;25.25;22.50;;;;;22.41;54.20;101203.28;4969536;28;45475;-82
2021/07/23 06:46:17;;;;;;;;;24.50;21.25;;;;;22.59;54.11;101201.56;4977058;28;45451;-82
2021/07/23 06:48:24;;;;;;;;;22.00;21.00;;;;;22.71;53.78;101210.00;4944692;28;45770;-84
2021/07/23 06:50:52;;;;;;;;;25.50;22.00;;;;;22.74;53.41;101205.34;4961452;28;44754;-85
2021/07/23 06:53:18;;;;;;;;;24.25;23.25;;;;;22.82;53.53;101207.66;4989016;28;45390;-83
2021/07/23 06:55:44;;;;;;;;;20.25;19.00;;;;;22.83;53.15;101207.59;4980724;28;45471;-82
2021/07/23 06:58:10;;;;;;;;;25.00;24.00;;;;;22.86;52.95;101201.22;4979344;28;48277;-81
2021/07/23 07:00:35;;;;;;;;;21.25;20.25;;;;;22.99;52.87;101209.56;4987228;28;45792;-81
2021/07/23 07:03:01;;;;;;;;;22.25;22.25;;;;;23.04;52.90;101195.00;4963602;28;45548;-85
2021/07/23 07:05:28;;;;;;;;;21.00;17.75;;;;;23.14;52.90;101200.78;4959897;28;45354;-83
2021/07/23 07:07:53;;;;;;;;;24.00;23.00;;;;;23.24;52.96;101196.69;4973574;28;46122;-85
2021/07/23 07:10:18;;;;;;;;;21.50;20.00;;;;;23.33;52.50;101203.44;4961245;28;45135;-84
2021/07/23 07:12:44;;;;;;;;;20.25;18.00;;;;;23.43;52.27;101195.78;4960056;28;45416;-84
2021/07/23 07:15:12;;;;;;;;;21.00;20.25;;;;;23.51;51.81;101189.06;4964853;28;45489;-85
2021/07/23 07:17:38;;;;;;;;;20.25;18.50;;;;;23.61;52.21;101181.41;4967821;28;48291;-83
2021/07/23 07:20:04;;;;;;;;;19.50;19.50;;;;;23.71;51.62;101181.78;4966530;28;45537;-84
2021/07/23 07:22:30;;;;;;;;;26.00;22.50;;;;;23.81;51.87;101190.28;4959727;28;45292;-81
2021/07/23 07:24:55;;;;;;;;;25.00;21.25;;;;;23.90;51.44;101190.69;4959498;28;45560;-77
2021/07/23 07:27:21;;;;;;;;;22.00;20.25;;;;;24.02;50.95;101189.16;4961550;28;46521;-78
2021/07/23 07:29:47;;;;;;;;;25.00;24.25;;;;;24.12;51.05;101200.31;4959973;28;45321;-76
2021/07/23 07:32:12;;;;;;;;;22.25;21.75;;;;;24.20;50.63;101192.72;4978025;28;45274;-77
2021/07/23 07:34:38;;;;;;;;;20.25;19.75;;;;;24.27;50.33;101201.31;4959604;28;45278;-78
2021/07/23 07:37:05;;;;;;;;;25.75;21.75;;;;;24.40;50.75;101199.69;4959018;28;46888;-78
2021/07/23 07:39:31;;;;;;;;;21.25;20.00;;;;;24.51;49.95;101196.44;4960477;28;45227;-78
2021/07/23 07:41:57;;;;;;;;;23.50;20.50;;;;;24.66;50.26;101203.69;4959596;28;45270;-78
2021/07/23 07:44:22;;;;;;;;;26.25;23.75;;;;;24.75;49.67;101199.59;4959027;28;45578;-78
2021/07/23 07:46:48;;;;;;;;;22.75;20.50;;;;;24.83;49.17;101192.88;4958896;28;47346;-77
2021/07/23 07:49:13;;;;;;;;;21.75;20.75;;;;;24.96;49.12;101192.16;4958855;28;45670;-79
2021/07/23 07:51:39;;;;;;;;;25.25;21.50;;;;;25.01;48.98;101185.53;4965032;28;45396;-77
2021/07/23 07:54:04;;;;;;;;;22.25;20.75;;;;;25.07;49.00;101182.50;4972213;28;45376;-77
2021/07/23 07:56:30;;;;;;;;;28.25;25.25;;;;;25.16;48.71;101181.16;4960088;28;46126;-77
2021/07/23 07:58:55;;;;;;;;;21.75;20.75;;;;;25.26;48.49;101176.97;4959954;28;45395;-77
2021/07/23 08:01:21;;;;;;;;;21.00;19.00;;;;;25.34;48.19;101170.22;4983472;28;45512;-77
2021/07/23 08:03:46;;;;;;;;;29.50;26.00;;;;;25.43;48.25;101172.41;4959945;28;45452;-80
2021/07/23 08:06:20;;;;;;;;;21.75;20.75;;;;;25.51;48.01;101170.97;4972606;28;45408;-78
2021/07/23 08:08:47;;;;;;;;;22.00;19.25;;;;;25.64;47.94;101170.25;4965057;28;45495;-76
2021/07/23 08:11:12;;;;;;;;;22.00;19.75;;;;;25.74;47.64;101164.22;4959956;28;45172;-78
2021/07/23 08:13:38;;;;;;;;;20.00;19.50;;;;;25.87;47.51;101172.44;4958653;28;45573;-76
2021/07/23 08:16:04;;;;;;;;;19.25;19.25;;;;;26.05;47.42;101169.59;4959617;28;45276;-77
2021/07/23 08:18:29;;;;;;;;;19.00;19.00;;;;;26.19;46.66;101156.09;4959966;28;45255;-77
2021/07/23 08:20:55;;;;;;;;;22.75;18.50;;;;;26.36;46.60;101161.31;4958982;28;45441;-82
2021/07/23 08:23:21;;;;;;;;;22.50;21.00;;;;;26.47;46.51;101141.72;4985815;28;45741;-82
2021/07/23 08:25:48;;;;;;;;;18.75;18.75;;;;;26.64;45.86;101139.81;4975005;28;45384;-81
2021/07/23 08:28:15;;;;;;;;;23.50;22.75;;;;;26.78;45.93;101146.06;4972982;28;45559;-80
2021/07/23 08:30:40;;;;;;;;;25.00;22.50;;;;;26.96;44.97;101152.06;4974419;28;45486;-79
2021/07/23 08:33:06;;;;;;;;;23.50;21.25;;;;;27.04;44.91;101143.44;4968166;28;45341;-78
2021/07/23 08:35:32;;;;;;;;;20.50;19.00;;;;;27.21;44.53;101151.34;4970399;28;45479;-80
2021/07/23 08:37:57;;;;;;;;;24.00;20.75;;;;;27.37;44.58;101143.06;4965283;28;45309;-81
2021/07/23 08:40:23;;;;;;;;;23.50;21.75;;;;;27.61;44.46;101151.34;4971224;28;45451;-78
2021/07/23 08:42:49;;;;;;;;;21.50;21.50;;;;;27.77;43.73;101142.13;4966834;28;45408;-80
2021/07/23 08:45:14;;;;;;;;;20.00;19.00;;;;;27.90;43.39;101137.63;4971842;28;47622;-79
2021/07/23 08:47:40;;;;;;;;;21.75;21.50;;;;;27.99;43.14;101139.72;4980055;28;45375;-81
2021/07/23 08:50:06;;;;;;;;;22.25;19.25;;;;;28.05;42.74;101133.84;4965638;28;45357;-78
2021/07/23 08:52:56;;;;;;;;;20.00;20.00;;;;;28.11;42.56;101135.25;4993354;28;45639;-77
2021/07/23 08:55:25;;;;;;;;;19.75;18.25;;;;;28.15;42.53;101121.41;4963736;28;47814;-79
2021/07/23 08:57:51;;;;;;;;;21.50;21.00;;;;;28.15;42.76;101125.94;4970860;28;45526;-77
2021/07/23 09:00:21;;;;;;;;;22.50;21.50;;;;;28.15;42.09;101125.94;4989172;28;45699;-78
2021/07/23 09:02:58;;;;;;;;;21.00;18.00;;;;;28.20;41.82;101129.19;4961796;28;46100;-79
2021/07/23 09:05:28;;;;;;;;;20.25;19.25;;;;;28.19;41.99;101135.56;4963526;28;47722;-82
2021/07/23 09:07:58;;;;;;;;;21.00;20.00;;;;;28.12;41.64;101127.03;4950712;28;45565;-81
2021/07/23 09:10:26;;;;;;;;;21.00;19.75;;;;;28.12;41.93;101128.84;4973343;28;45329;-81
2021/07/23 09:12:53;;;;;;;;;22.50;19.50;;;;;28.12;42.02;101121.63;4961892;28;45317;-81
2021/07/23 09:15:29;;;;;;;;;19.50;18.75;;;;;28.14;42.22;101127.75;4970451;28;46373;-79
2021/07/23 09:17:55;;;;;;;;;24.00;21.75;;;;;28.16;41.66;101116.84;4943621;28;45353;-81
2021/07/23 09:20:24;;;;;;;;;22.25;20.75;;;;;28.22;42.16;101110.97;4954157;28;45872;-82
2021/07/23 09:22:50;;;;;;;;;23.25;22.00;;;;;28.32;41.37;101109.34;4968186;28;45187;-82
2021/07/23 09:25:41;;;;;;;;;20.50;19.00;;;;;28.38;41.45;101110.72;4962034;28;46098;-81
2021/07/23 09:28:30;;;;;;;;;23.25;21.25;;;;;28.52;41.40;101104.31;4953852;28;45554;-81
2021/07/23 09:30:58;;;;;;;;;27.50;23.50;;;;;28.64;40.72;101097.16;4952893;28;45437;-83
2021/07/23 09:33:37;;;;;;;;;21.25;19.00;;;;;28.71;41.20;101088.47;4967597;28;45467;-86
2021/07/23 09:36:05;;;;;;;;;23.75;20.50;;;;;28.88;41.10;101078.19;4960769;28;46066;-83
2021/07/23 09:38:45;;;;;;;;;23.50;23.50;;;;;29.07;40.80;101091.25;4970141;28;45465;-84
2021/07/23 09:41:12;;;;;;;;;21.75;20.00;;;;;29.27;40.89;101085.19;4949572;28;45473;-82
2021/07/23 09:43:39;;;;;;;;;13.50;13.50;;;;;29.46;40.45;101090.91;4961578;28;45279;-80
2021/07/23 09:46:17;;;;;;;;;21.50;19.00;;;;;29.63;39.91;101075.13;4970421;28;45802;-79
2021/07/23 09:48:43;;;;;;;;;20.75;18.75;;;;;29.73;39.46;101072.59;4960897;28;45768;-79
2021/07/23 09:51:10;;;;;;;;;19.75;19.75;;;;;29.74;38.42;101058.91;4965701;28;45413;-80
2021/07/23 09:53:36;;;;;;;;;22.00;19.25;;;;;29.80;38.64;101058.41;4980230;28;45272;-83
2021/07/23 09:56:08;;;;;;;;;21.25;20.25;;;;;29.96;38.77;101052.59;4951938;28;46618;-81
2021/07/23 09:58:40;;;;;;;;;21.00;21.00;;;;;30.05;38.81;101046.44;4949197;28;45848;-83
2021/07/23 10:01:13;;;;;;;;;21.25;19.25;;;;;30.12;38.45;101046.78;4989692;28;45536;-82
2021/07/23 10:03:46;;;;;;;;;22.50;21.25;;;;;30.12;37.95;101033.22;4968115;28;45435;-82
2021/07/23 10:06:22;;;;;;;;;18.75;18.25;;;;;30.14;37.28;101025.81;4961673;28;45515;-81
2021/07/23 10:08:54;;;;;;;;;21.75;20.25;;;;;30.10;37.56;101016.22;4976877;28;45551;-79
2021/07/23 10:11:20;;;;;;;;;22.00;20.00;;;;;29.97;37.50;101013.63;4959514;28;45496;-80
2021/07/23 10:13:49;;;;;;;;;20.50;19.50;;;;;29.84;37.56;101010.16;4969352;28;45477;-79
2021/07/23 10:16:16;;;;;;;;;19.75;18.50;;;;;29.74;38.00;101003.75;4965673;28;45574;-79
2021/07/23 10:18:42;;;;;;;;;21.00;19.25;;;;;29.68;37.60;100999.69;4961654;28;45179;-79
2021/07/23 10:21:09;;;;;;;;;24.75;19.75;;;;;29.58;37.89;100996.78;4975515;28;45528;-79
2021/07/23 10:23:36;;;;;;;;;20.50;20.00;;;;;29.49;37.46;100992.13;4963997;28;45714;-81
2021/07/23 10:26:03;;;;;;;;;22.00;21.00;;;;;29.39;37.45;100988.41;4963685;28;45518;-84
2021/07/23 10:28:41;;;;;;;;;20.50;19.75;;;;;29.26;38.00;100974.94;4959996;28;45276;-82
2021/07/23 10:31:21;;;;;;;;;19.75;19.75;;;;;29.21;37.91;100969.88;4968461;28;45464;-83
2021/07/23 10:33:54;;;;;;;;;16.75;16.50;;;;;29.21;38.19;100960.88;4964730;28;45567;-84
2021/07/23 10:36:38;;;;;;;;;17.00;16.50;;;;;29.25;38.16;100948.81;4958733;28;47588;-85
2021/07/23 10:39:07;;;;;;;;;21.75;21.25;;;;;29.33;38.26;100949.06;4974552;28;45269;-92
2021/07/23 10:41:37;;;;;;;;;20.25;20.00;;;;;29.51;38.43;100956.69;4965869;28;45341;-82
2021/07/23 10:44:36;;;;;;;;;;;;;;;;;;;;;
2021/07/23 10:47:10;;;;;;;;;22.00;19.75;;;;;29.92;37.21;100952.53;4969741;28;75225;-85
2021/07/23 10:53:29;;;;;;;;;19.00;18.00;;;;;30.37;36.92;100926.16;4939586;28;45472;-84
2021/07/23 10:56:47;;;;;;;;;;;;;;;;;;;;;
2021/07/23 11:00:29;;;;;;;;;;;;;;;;;;;;;
2021/07/23 11:03:13;;;;;;;;;;;;;;;;;;;;;
2021/07/23 11:20:37;;;;;;;;;;;;;;;;;;;;;
2021/07/23 11:23:04;;;;;;;;;12.50;12.50;;;;;31.78;32.09;100873.03;4839682;29;72106;-83
2021/07/23 11:26:06;;;;;;;;;15.00;15.00;;;;;31.94;32.33;100883.38;4827345;29;47096;-85
2021/07/23 11:39:43;;;;;;;;;;;;;;;;;;;;;
2021/07/23 11:52:28;;;;;;;;;14.75;14.75;;;;;31.85;33.14;100835.19;4956154;28;45599;-84
2021/07/23 11:55:20;;;;;;;;;18.75;18.25;;;;;31.98;33.15;100837.69;4967809;28;45426;-86
2021/07/23 11:57:49;;;;;;;;;18.00;15.75;;;;;31.99;32.85;100829.34;4987838;28;45472;-86
2021/07/23 12:00:17;;;;;;;;;18.25;16.25;;;;;31.98;33.29;100835.81;4981180;28;45484;-83
2021/07/23 12:02:43;;;;;;;;;18.00;17.00;;;;;31.97;33.09;100831.38;4949300;28;47289;-86
2021/07/23 12:05:14;;;;;;;;;16.25;14.50;;;;;31.94;32.90;100831.63;4958115;28;45289;-85
2021/07/23 12:07:51;;;;;;;;;;;;;;;;;;;;;
2021/07/23 12:10:42;;;;;;;;;13.25;13.25;;;;;32.05;32.48;100827.91;4966916;28;73218;-87
2021/07/23 12:13:09;;;;;;;;;15.50;13.50;;;;;32.04;32.11;100809.84;4940827;28;48019;-87
2021/07/23 12:16:28;;;;;;;;;;;;;;;;;;;;;
2021/07/23 12:22:49;;;;;;;;;;;;;;;;;;;;;
2021/07/23 12:25:24;;;;;;;;;14.75;14.75;;;;;32.14;32.72;100785.34;4928576;28;76435;-81